CheckWX is a tool to help pilots better visualize weather data.  It is not intended as a substitute for an official pre-flight weather briefing.

18:20:04 UTC

SCTE TAF
El Tepual Airport
Puerto Montt, Chile
TAF SCTE 201636Z 2018/2118 31008KT 9999 BKN040 TX09/2019Z TN04/2112Z TEMPO 2018/2020 8000 -SHRA SCT010 BKN030 BECMG 2022/2024 29012KT 6000 -RA OVC018 TEMPO 2105/2107 8000 -SHRA BECMG 2109/2111 26005KT 9999 NSW

Sep-20@
18:00 UTC

Sep-20 @ 18:00 UTC

Sep-20@
22:00 UTC

Sep-20 @ 22:00 UTC

TAF SCTE 201636Z 2018/2118 31008KT 9999 BKN040 TX09/2019Z TN04/2112Z
Wind
  • 310° at 8 KTS
Cloud Levels
  • Broken at 4,000' AGL

Sep-20@
18:00 UTC

Sep-20 @ 18:00 UTC

Sep-20@
20:00 UTC

Sep-20 @ 20:00 UTC

TEMPO 2018/2020 8000 -SHRA SCT010 BKN030

Temporary

Temporary Changes expected for less than half the time period

Conditions
Light Rain
Cloud Levels
  • Scattered at 1,000' AGL
  • Broken at 3,000' AGL

Sep-20@
22:00 UTC

Sep-20 @ 22:00 UTC

Sep-21@
09:00 UTC

Sep-21 @ 09:00 UTC

BECMG 2022/2024 29012KT 6000 -RA OVC018

Becoming

Becoming Conditions expected by Sat, Sep 21, 2019 @ 00:00 UTC

Wind
  • 290° at 12 KTS
Conditions
Light Rain
Cloud Levels
  • Overcast at 1,800' AGL

Sep-21@
05:00 UTC

Sep-21 @ 05:00 UTC

Sep-21@
07:00 UTC

Sep-21 @ 07:00 UTC

TEMPO 2105/2107 8000 -SHRA

Temporary

Temporary Changes expected for less than half the time period

Conditions
Light Rain

Sep-21@
09:00 UTC

Sep-21 @ 09:00 UTC

Sep-21@
18:00 UTC

Sep-21 @ 18:00 UTC

BECMG 2109/2111 26005KT 9999 NSW

Becoming

Becoming Conditions expected by Sat, Sep 21, 2019 @ 11:00 UTC

Wind
  • 260° at 5 KTS
Conditions
No significant weather
Cloud Levels
  • Overcast at 1,800' AGL